Time;durP1;ratioP1;P1;durP2;ratioP2;P2;SDS_P1;SDS_P2;PMS_P1;PMS_P2;Temp;Humidity;BMP_temperature;BMP_pressure;BME280_temperature;BME280_humidity;BME280_pressure;Samples;Min_cycle;Max_cycle;Signal;HPM_P1;HPM_P2
2022/09/04 00:02:15;;;;;;;5.77;2.50;;;;;;;15.10;59.60;100318.88;5105485;28;20543;-62
2022/09/04 00:04:46;;;;;;;3.10;2.40;;;;;;;15.09;59.96;100326.13;5118743;28;20439;-62
2022/09/04 00:07:21;;;;;;;2.90;2.60;;;;;;;15.07;60.42;100333.53;5113072;28;20489;-62
2022/09/04 00:09:57;;;;;;;2.43;2.00;;;;;;;15.02;60.79;100334.03;5101811;28;20439;-63
2022/09/04 00:12:29;;;;;;;3.27;2.43;;;;;;;14.98;60.75;100335.38;5106605;28;20488;-63
2022/09/04 00:15:04;;;;;;;3.30;2.90;;;;;;;14.96;60.92;100334.69;5120283;28;20549;-63
2022/09/04 00:17:36;;;;;;;3.80;2.70;;;;;;;14.93;61.36;100335.03;5103866;28;20475;-63
2022/09/04 00:20:06;;;;;;;4.43;2.93;;;;;;;14.93;61.31;100334.19;5104656;28;20905;-62
2022/09/04 00:22:39;;;;;;;3.93;2.87;;;;;;;14.87;61.80;100343.78;5111427;28;20811;-63
2022/09/04 00:25:11;;;;;;;2.70;2.20;;;;;;;14.83;61.82;100337.03;5106694;28;20500;-63
2022/09/04 00:27:43;;;;;;;2.50;2.30;;;;;;;14.82;62.04;100338.03;5112584;28;20470;-62
2022/09/04 00:30:13;;;;;;;5.90;2.70;;;;;;;14.78;61.92;100342.91;5116034;28;20976;-62
2022/09/04 00:32:44;;;;;;;5.20;2.70;;;;;;;14.80;61.89;100356.22;5110528;28;20443;-61
2022/09/04 00:35:16;;;;;;;6.93;2.63;;;;;;;14.77;61.93;100353.84;5121321;28;20426;-62
2022/09/04 00:37:47;;;;;;;7.10;3.47;;;;;;;14.68;62.22;100348.44;5124652;28;20449;-61
2022/09/04 00:40:20;;;;;;;4.30;2.57;;;;;;;14.64;62.30;100357.84;5083091;28;20452;-61
2022/09/04 00:43:00;;;;;;;4.47;2.60;;;;;;;14.62;62.51;100359.03;5081121;28;20456;-61
2022/09/04 00:45:40;;;;;;;3.73;2.40;;;;;;;14.65;62.75;100353.31;5088619;28;20541;-62
2022/09/04 00:48:26;;;;;;;7.73;3.17;;;;;;;14.62;63.10;100346.41;5102851;28;20522;-62
2022/09/04 00:51:15;;;;;;;6.43;3.23;;;;;;;14.51;64.09;100346.69;5101621;28;20466;-62
2022/09/04 00:54:10;;;;;;;5.67;3.37;;;;;;;14.50;64.31;100348.53;5061758;28;20492;-61
2022/09/04 00:57:12;;;;;;;6.53;3.70;;;;;;;14.50;64.36;100345.84;5060496;28;20502;-62
2022/09/04 00:59:57;;;;;;;5.17;3.00;;;;;;;14.47;64.38;100340.78;5096968;28;20442;-62
2022/09/04 01:02:32;;;;;;;3.63;3.27;;;;;;;14.40;64.87;100342.44;5101136;28;20483;-63
2022/09/04 01:05:04;;;;;;;4.33;2.77;;;;;;;14.36;65.48;100348.34;5083771;28;20457;-62
2022/09/04 01:07:44;;;;;;;3.37;2.83;;;;;;;14.36;64.92;100356.41;5097507;28;20482;-63
2022/09/04 01:10:35;;;;;;;4.43;2.90;;;;;;;14.28;64.93;100354.50;5101700;28;20697;-63
2022/09/04 01:13:07;;;;;;;3.80;2.80;;;;;;;14.25;65.12;100358.38;5084807;28;20456;-62
2022/09/04 01:15:40;;;;;;;2.80;2.60;;;;;;;14.24;64.92;100363.91;5100815;28;20470;-62
2022/09/04 01:18:10;;;;;;;5.77;2.80;;;;;;;14.24;65.38;100362.06;5101528;28;20444;-63
2022/09/04 01:21:06;;;;;;;5.53;3.00;;;;;;;14.20;65.98;100359.84;5095883;28;20466;-62
2022/09/04 01:23:56;;;;;;;3.37;3.07;;;;;;;14.22;65.46;100369.47;5093077;28;20961;-62
2022/09/04 01:26:28;;;;;;;5.47;2.90;;;;;;;14.22;65.31;100371.31;5082334;28;20478;-62
2022/09/04 01:29:06;;;;;;;3.60;2.60;;;;;;;14.06;65.19;100367.53;5099463;28;20435;-62
2022/09/04 01:31:39;;;;;;;4.73;2.30;;;;;;;14.03;65.18;100362.47;5095953;28;20529;-62
2022/09/04 01:34:17;;;;;;;4.60;3.00;;;;;;;14.04;65.58;100369.53;5095197;28;20579;-62
2022/09/04 01:36:49;;;;;;;3.40;2.83;;;;;;;14.04;65.44;100366.84;5101593;28;20656;-62
2022/09/04 01:39:19;;;;;;;3.63;2.53;;;;;;;14.08;65.66;100368.22;5102444;28;20447;-62
2022/09/04 01:41:52;;;;;;;3.33;2.33;;;;;;;14.03;65.42;100370.53;5106018;28;20572;-62
2022/09/04 01:44:19;;;;;;;4.10;2.60;;;;;;;14.03;65.03;100367.84;5104604;28;20456;-62
2022/09/04 01:46:56;;;;;;;3.30;3.00;;;;;;;14.04;65.36;100372.22;5092859;28;20483;-62
2022/09/04 01:49:29;;;;;;;3.00;2.70;;;;;;;14.01;65.25;100369.00;5117407;28;20442;-62
2022/09/04 01:52:03;;;;;;;3.47;3.17;;;;;;;14.01;65.58;100372.56;5121222;28;20509;-62
2022/09/04 01:54:40;;;;;;;3.90;3.00;;;;;;;14.02;66.17;100370.69;5106445;28;20721;-62
2022/09/04 01:57:15;;;;;;;3.70;2.97;;;;;;;14.01;65.78;100363.63;5118172;28;20543;-62
2022/09/04 01:59:52;;;;;;;5.57;3.20;;;;;;;13.92;65.91;100368.13;5111457;28;20645;-62
2022/09/04 02:02:25;;;;;;;3.37;2.77;;;;;;;13.87;66.14;100371.31;5110575;28;20531;-62
2022/09/04 02:04:59;;;;;;;3.67;3.03;;;;;;;13.85;66.74;100367.94;5103656;28;20565;-62
2022/09/04 02:07:31;;;;;;;3.97;3.37;;;;;;;13.81;66.73;100361.16;5103258;28;20482;-62
2022/09/04 02:10:07;;;;;;;4.47;3.20;;;;;;;13.74;67.07;100366.34;5115233;28;20997;-62
2022/09/04 02:12:41;;;;;;;3.90;3.00;;;;;;;13.67;67.28;100375.19;5118184;28;20495;-62
2022/09/04 02:15:12;;;;;;;5.70;3.20;;;;;;;13.64;67.00;100376.34;5102961;28;20486;-62
2022/09/04 02:17:44;;;;;;;4.03;3.33;;;;;;;13.65;67.16;100369.97;5103980;28;20443;-62
2022/09/04 02:20:18;;;;;;;6.50;3.30;;;;;;;13.65;67.21;100369.16;5102359;28;20492;-62
2022/09/04 02:22:51;;;;;;;4.83;3.57;;;;;;;13.63;67.22;100374.66;5104877;28;20474;-62
2022/09/04 02:25:24;;;;;;;5.50;3.77;;;;;;;13.63;67.28;100377.34;5102615;28;20427;-63
2022/09/04 02:28:02;;;;;;;5.40;3.30;;;;;;;13.64;67.92;100375.50;5106845;28;20436;-63
2022/09/04 02:30:32;;;;;;;5.83;3.27;;;;;;;13.60;67.81;100366.91;5084093;28;20505;-62
2022/09/04 02:33:04;;;;;;;5.07;3.27;;;;;;;13.54;67.78;100373.78;5104487;28;20504;-62
2022/09/04 02:35:35;;;;;;;4.30;2.90;;;;;;;13.55;68.15;100371.91;5121054;28;20466;-62
2022/09/04 02:38:10;;;;;;;4.40;3.77;;;;;;;13.54;67.97;100376.47;5112537;28;20479;-63
2022/09/04 02:40:42;;;;;;;4.37;3.63;;;;;;;13.52;68.61;100374.91;5116420;28;20493;-63
2022/09/04 02:43:27;;;;;;;4.03;3.63;;;;;;;13.45;68.57;100372.00;5120132;28;20453;-63
2022/09/04 02:46:00;;;;;;;5.13;3.60;;;;;;;13.29;69.06;100369.16;5115791;28;20479;-63
2022/09/04 02:48:33;;;;;;;6.70;3.60;;;;;;;13.43;69.09;100363.25;5102320;28;20456;-63
2022/09/04 02:51:12;;;;;;;5.67;3.80;;;;;;;13.32;69.58;100368.91;5102072;28;20510;-63
2022/09/04 02:53:44;;;;;;;8.83;3.77;;;;;;;13.29;69.89;100369.16;5113655;28;20492;-63
2022/09/04 02:56:21;;;;;;;5.53;4.10;;;;;;;13.29;69.97;100383.44;5121018;28;20486;-63
2022/09/04 02:59:02;;;;;;;5.40;3.90;;;;;;;13.29;70.08;100377.22;5122425;28;20751;-63
2022/09/04 03:01:35;;;;;;;4.00;3.60;;;;;;;13.28;69.89;100368.34;5119883;28;20544;-62
2022/09/04 03:04:05;;;;;;;4.13;3.83;;;;;;;13.24;70.17;100379.53;5107510;28;20455;-63
2022/09/04 03:06:47;;;;;;;4.30;3.90;;;;;;;13.21;70.48;100379.84;5102409;28;21006;-62
2022/09/04 03:09:16;;;;;;;4.10;3.70;;;;;;;13.14;70.78;100390.34;5103776;28;20424;-63
2022/09/04 03:11:47;;;;;;;6.20;4.60;;;;;;;13.13;70.46;100389.50;5107080;28;20501;-63
2022/09/04 03:14:23;;;;;;;7.30;4.20;;;;;;;13.15;70.67;100392.88;5121268;28;20516;-63
2022/09/04 03:16:54;;;;;;;4.53;3.70;;;;;;;13.16;70.93;100391.88;5088188;28;20478;-62
2022/09/04 03:19:25;;;;;;;6.50;4.17;;;;;;;13.14;70.94;100383.16;5114893;28;20435;-62
2022/09/04 03:21:56;;;;;;;4.50;4.10;;;;;;;13.12;70.66;100390.53;5119439;28;21008;-62
2022/09/04 03:24:26;;;;;;;4.43;4.03;;;;;;;13.06;71.14;100395.66;5120284;28;20449;-62
2022/09/04 03:26:54;;;;;;;5.17;4.50;;;;;;;13.08;71.44;100393.66;5115071;28;20520;-62
2022/09/04 03:29:28;;;;;;;4.37;3.97;;;;;;;13.08;71.20;100390.97;5114245;28;20466;-63
2022/09/04 03:32:05;;;;;;;5.20;4.10;;;;;;;13.15;70.97;100392.03;5111580;28;20498;-62
2022/09/04 03:34:43;;;;;;;7.43;4.00;;;;;;;12.97;71.44;100392.06;5104291;28;20479;-63
2022/09/04 03:37:22;;;;;;;5.60;4.43;;;;;;;12.93;71.61;100394.19;5114912;28;20467;-62
2022/09/04 03:40:00;;;;;;;3.83;3.50;;;;;;;12.93;72.13;100390.66;5121590;28;20480;-62
2022/09/04 03:42:35;;;;;;;5.50;4.40;;;;;;;12.87;72.44;100396.66;5119761;28;20507;-63
2022/09/04 03:45:11;;;;;;;7.80;4.37;;;;;;;12.88;72.28;100395.63;5122020;28;20422;-63
2022/09/04 03:47:45;;;;;;;4.17;3.87;;;;;;;12.88;72.04;100396.50;5118783;28;20486;-62
2022/09/04 03:50:19;;;;;;;4.87;3.83;;;;;;;12.89;72.39;100397.31;5118986;28;20597;-62
2022/09/04 03:52:52;;;;;;;4.43;4.03;;;;;;;12.90;72.22;100393.66;5108241;28;20470;-62
2022/09/04 03:55:55;;;;;;;5.17;4.10;;;;;;;12.87;72.09;100396.66;5120519;28;20473;-62
2022/09/04 03:58:24;;;;;;;4.27;3.87;;;;;;;12.79;72.25;100403.63;5080457;28;20436;-62
2022/09/04 04:01:00;;;;;;;4.63;3.93;;;;;;;12.76;72.68;100403.91;5090523;28;20507;-62
2022/09/04 04:03:41;;;;;;;4.87;3.73;;;;;;;12.80;72.77;100404.44;5111226;28;20484;-62
2022/09/04 04:06:16;;;;;;;6.00;3.03;;;;;;;12.76;72.60;100411.97;5104813;28;20494;-63
2022/09/04 04:09:17;;;;;;;5.40;4.07;;;;;;;12.75;72.57;100421.00;5105804;28;20441;-62
2022/09/04 04:12:15;;;;;;;6.00;4.33;;;;;;;12.74;72.52;100411.28;5119667;28;20577;-62
2022/09/04 04:14:58;;;;;;;6.53;3.80;;;;;;;12.74;72.68;100416.63;5099464;28;20483;-62
2022/09/04 04:17:41;;;;;;;9.73;4.70;;;;;;;12.74;73.15;100416.63;5117142;28;20478;-61
2022/09/04 04:20:23;;;;;;;5.50;4.50;;;;;;;12.79;72.88;100421.53;5113579;28;20435;-62
2022/09/04 04:23:14;;;;;;;5.10;4.37;;;;;;;12.77;72.73;100421.69;5101805;28;20514;-62
2022/09/04 04:25:59;;;;;;;4.37;3.50;;;;;;;12.79;72.44;100425.06;5111149;28;20470;-63
2022/09/04 04:28:41;;;;;;;4.57;3.60;;;;;;;12.70;72.88;100428.63;5101301;28;20862;-62
2022/09/04 04:31:17;;;;;;;4.63;4.13;;;;;;;12.68;73.06;100427.13;5119811;28;20553;-62
2022/09/04 04:33:52;;;;;;;4.87;4.37;;;;;;;12.66;73.03;100431.78;5104949;28;20464;-62
2022/09/04 04:36:23;;;;;;;5.70;4.10;;;;;;;12.69;72.92;100431.47;5110230;28;20493;-62
2022/09/04 04:39:08;;;;;;;5.47;4.60;;;;;;;12.65;73.23;100444.34;5121331;28;20457;-62
2022/09/04 04:47:30;;;;;;;5.93;4.97;;;;;;;12.67;73.54;100447.72;5090841;28;20998;-63
2022/09/04 04:50:06;;;;;;;4.77;4.37;;;;;;;12.73;73.54;100454.34;5119708;28;20461;-63
2022/09/04 04:52:44;;;;;;;6.00;4.93;;;;;;;12.76;72.90;100454.88;5111273;28;20463;-63
2022/09/04 04:55:16;;;;;;;8.53;5.40;;;;;;;12.80;72.81;100455.44;5105842;28;20585;-62
2022/09/04 04:57:53;;;;;;;5.00;4.50;;;;;;;12.86;72.63;100457.50;5120842;28;20453;-63
2022/09/04 05:00:23;;;;;;;6.77;5.70;;;;;;;13.14;72.00;100466.38;5111832;28;20449;-62
2022/09/04 05:02:59;;;;;;;6.20;5.13;;;;;;;13.58;70.59;100471.00;5104394;28;20469;-64
2022/09/04 05:05:46;;;;;;;5.90;5.30;;;;;;;14.18;68.90;100474.78;5110022;28;20450;-63
2022/09/04 05:08:22;;;;;;;5.30;4.80;;;;;;;15.05;65.11;100480.94;5100328;28;20514;-64
2022/09/04 05:10:52;;;;;;;5.70;5.10;;;;;;;15.80;62.31;100474.66;5105551;28;20496;-64
2022/09/04 05:13:22;;;;;;;5.37;4.80;;;;;;;16.51;59.04;100464.09;5108857;28;20470;-64
2022/09/04 05:15:55;;;;;;;4.73;4.33;;;;;;;17.02;57.05;100471.81;5122595;28;20558;-64
2022/09/04 05:18:29;;;;;;;5.53;3.90;;;;;;;17.49;55.11;100478.94;5123842;28;20438;-63
2022/09/04 05:21:00;;;;;;;6.53;4.33;;;;;;;17.67;54.50;100482.19;5123459;28;20472;-62
2022/09/04 05:23:33;;;;;;;4.60;3.83;;;;;;;18.23;53.12;100489.97;5119954;28;20902;-62
2022/09/04 05:26:09;;;;;;;4.83;3.33;;;;;;;17.74;52.97;100497.66;5121912;28;20511;-62
2022/09/04 05:28:46;;;;;;;3.10;2.80;;;;;;;18.15;52.50;100489.22;5114958;28;20466;-64
2022/09/04 05:31:20;;;;;;;5.17;4.30;;;;;;;18.36;51.75;100493.91;5111098;28;20499;-63
2022/09/04 05:33:55;;;;;;;4.63;3.20;;;;;;;17.61;53.44;100498.28;5121253;28;20537;-64
2022/09/04 05:36:28;;;;;;;4.10;3.80;;;;;;;17.27;54.30;100497.66;5120856;28;20521;-63
2022/09/04 05:39:02;;;;;;;3.50;3.10;;;;;;;17.31;54.40;100490.88;5103188;28;20543;-63
2022/09/04 05:41:36;;;;;;;4.20;3.90;;;;;;;18.12;52.32;100498.53;5110788;28;20483;-64
2022/09/04 05:44:18;;;;;;;4.20;3.07;;;;;;;18.52;50.80;100506.41;5103788;28;20475;-64
2022/09/04 05:46:52;;;;;;;5.90;2.80;;;;;;;20.07;47.31;100502.59;5117092;28;20500;-64
2022/09/04 05:49:31;;;;;;;4.67;3.23;;;;;;;20.86;44.98;100504.97;5110012;28;20471;-64
2022/09/04 05:52:16;;;;;;;5.00;3.13;;;;;;;21.71;43.15;100504.59;5121509;28;20475;-63
2022/09/04 05:55:05;;;;;;;5.17;3.90;;;;;;;20.67;44.76;100508.41;5119115;28;20498;-63
2022/09/04 05:57:40;;;;;;;4.20;3.80;;;;;;;20.30;45.36;100508.59;5109225;28;20472;-62
2022/09/04 06:00:10;;;;;;;5.47;3.73;;;;;;;20.44;45.41;100505.97;5108828;28;20458;-64
2022/09/04 06:03:12;;;;;;;4.80;3.40;;;;;;;20.68;45.11;100496.53;5108356;28;20434;-64
2022/09/04 06:05:46;;;;;;;4.20;2.80;;;;;;;20.63;44.80;100501.72;5107543;28;20472;-63
2022/09/04 06:08:32;;;;;;;7.27;3.77;;;;;;;21.27;44.10;100507.84;5082322;28;20453;-63
2022/09/04 06:11:20;;;;;;;4.07;2.77;;;;;;;22.46;41.27;100504.38;5115051;28;20472;-63
2022/09/04 06:13:57;;;;;;;5.27;3.20;;;;;;;23.10;39.54;100516.38;5118677;28;20468;-63
2022/09/04 06:16:39;;;;;;;3.10;2.90;;;;;;;22.32;40.80;100508.19;5082425;28;20542;-63
2022/09/04 06:19:18;;;;;;;5.50;3.80;;;;;;;22.53;40.63;100515.28;5102900;28;20467;-64
2022/09/04 06:22:09;;;;;;;3.00;2.53;;;;;;;22.52;40.44;100514.44;5100843;28;20492;-64
2022/09/04 06:25:08;;;;;;;2.77;2.50;;;;;;;22.67;39.92;100516.09;5102120;28;20489;-63
2022/09/04 06:27:47;;;;;;;3.37;1.97;;;;;;;23.36;38.52;100525.47;5099722;28;20537;-64
2022/09/04 06:30:15;;;;;;;4.43;2.53;;;;;;;23.24;38.56;100517.13;5100430;27;20991;-64
2022/09/04 06:33:06;;;;;;;2.97;2.30;;;;;;;22.83;39.62;100526.53;5103170;28;20914;-65
2022/09/04 06:35:45;;;;;;;2.87;2.30;;;;;;;23.33;38.88;100530.53;5102420;28;20594;-64
2022/09/04 06:38:22;;;;;;;3.40;2.23;;;;;;;23.22;38.65;100521.97;5107715;28;20461;-64
2022/09/04 06:40:59;;;;;;;2.73;2.50;;;;;;;23.77;37.98;100532.38;5122232;28;20477;-65
2022/09/04 06:43:33;;;;;;;3.53;2.37;;;;;;;23.83;38.05;100528.78;5123382;28;20567;-65
2022/09/04 06:46:09;;;;;;;4.40;2.30;;;;;;;25.34;35.16;100539.47;5117055;28;20976;-65
2022/09/04 06:48:43;;;;;;;3.37;2.90;;;;;;;24.26;36.88;100543.56;5102236;28;20427;-65
2022/09/04 06:51:22;;;;;;;2.80;2.30;;;;;;;23.82;37.89;100545.41;5108987;28;20483;-65
2022/09/04 06:53:57;;;;;;;3.17;2.40;;;;;;;24.28;36.78;100555.09;5122750;28;20827;-64
2022/09/04 06:56:38;;;;;;;2.33;2.10;;;;;;;26.84;32.72;100549.50;5108690;28;20473;-64
2022/09/04 06:59:22;;;;;;;2.17;1.90;;;;;;;25.12;34.78;100549.19;5096893;28;20531;-64
2022/09/04 07:01:59;;;;;;;3.07;2.33;;;;;;;25.68;34.67;100549.97;5101322;28;20505;-64
2022/09/04 07:04:35;;;;;;;4.40;2.47;;;;;;;25.15;35.04;100549.59;5102552;28;20454;-64
2022/09/04 07:07:09;;;;;;;2.37;2.17;;;;;;;27.19;32.47;100548.59;5096518;28;20482;-65
2022/09/04 07:09:40;;;;;;;4.73;2.57;;;;;;;25.67;34.52;100549.09;5102390;28;20450;-64
2022/09/04 07:12:35;;;;;;;2.70;2.23;;;;;;;25.94;34.12;100548.75;5102041;28;20532;-64
2022/09/04 07:15:40;;;;;;;5.23;2.50;;;;;;;25.54;35.15;100552.88;5102721;28;20501;-64
2022/09/04 07:18:19;;;;;;;3.60;1.70;;;;;;;27.27;32.15;100558.31;5114297;28;20466;-65
2022/09/04 07:20:55;;;;;;;6.37;2.17;;;;;;;26.55;33.21;100546.63;5106730;28;20473;-65
2022/09/04 07:23:27;;;;;;;1.87;1.60;;;;;;;27.79;31.07;100559.09;5107261;28;20462;-64
2022/09/04 07:26:01;;;;;;;2.63;2.23;;;;;;;27.39;31.70;100557.25;5102493;28;20474;-64
2022/09/04 07:28:42;;;;;;;5.00;2.50;;;;;;;27.75;30.76;100557.91;5102249;28;20442;-64
2022/09/04 07:31:11;;;;;;;7.17;2.40;;;;;;;27.72;30.88;100555.66;5101932;28;20478;-64
2022/09/04 07:33:44;;;;;;;2.37;1.83;;;;;;;27.06;32.29;100566.13;5101817;28;20499;-64
2022/09/04 07:36:15;;;;;;;2.67;2.30;;;;;;;28.18;31.07;100569.38;5105921;28;20476;-64
2022/09/04 07:38:47;;;;;;;3.00;1.80;;;;;;;27.77;31.47;100563.97;5103996;28;20490;-64
2022/09/04 07:41:18;;;;;;;5.33;2.37;;;;;;;27.04;32.72;100568.28;5100889;28;20611;-65
2022/09/04 07:43:53;;;;;;;2.20;1.90;;;;;;;27.76;31.89;100567.00;5101399;28;20452;-64
2022/09/04 07:46:23;;;;;;;2.20;2.00;;;;;;;28.71;29.79;100578.19;5101176;28;20473;-64
2022/09/04 07:48:55;;;;;;;3.53;1.77;;;;;;;29.23;30.04;100583.31;5100774;28;20461;-64
2022/09/04 07:51:24;;;;;;;3.20;1.80;;;;;;;29.07;29.79;100576.75;5100932;28;20470;-64
2022/09/04 07:54:22;;;;;;;5.00;2.00;;;;;;;29.93;28.68;100590.97;5100382;28;20869;-64
2022/09/04 07:57:17;;;;;;;3.43;1.67;;;;;;;29.01;29.50;100582.44;5100505;28;20543;-64
2022/09/04 08:00:02;;;;;;;5.03;1.60;;;;;;;29.55;28.96;100577.06;5103975;28;20450;-64
2022/09/04 08:03:00;;;;;;;3.23;2.30;;;;;;;28.53;30.81;100584.78;5099843;28;21007;-65
2022/09/04 08:05:30;;;;;;;3.90;1.63;;;;;;;29.83;28.11;100583.44;5100349;28;20466;-65
2022/09/04 08:08:27;;;;;;;3.10;1.90;;;;;;;29.01;29.55;100586.03;5100479;28;20446;-64
2022/09/04 08:11:06;;;;;;;2.27;1.53;;;;;;;30.29;28.14;100583.00;5098834;28;20474;-65
2022/09/04 08:14:00;;;;;;;3.80;1.57;;;;;;;30.14;27.99;100594.75;5099683;28;20458;-64
2022/09/04 08:16:33;;;;;;;2.53;2.00;;;;;;;30.72;27.04;100590.22;5090057;28;20477;-65
2022/09/04 08:19:15;;;;;;;2.43;2.00;;;;;;;30.87;26.77;100597.78;5099829;28;20478;-64
2022/09/04 08:21:43;;;;;;;3.67;1.83;;;;;;;30.07;28.35;100594.13;5113343;28;20507;-65
2022/09/04 08:24:41;;;;;;;6.70;1.80;;;;;;;29.40;30.12;100607.19;5085216;28;20462;-64
2022/09/04 08:27:12;;;;;;;2.33;1.57;;;;;;;29.58;29.13;100603.25;5100293;28;20470;-64
2022/09/04 08:29:56;;;;;;;3.23;1.90;;;;;;;29.23;29.90;100608.09;5098876;28;20794;-64
2022/09/04 08:32:46;;;;;;;5.60;1.83;;;;;;;29.35;30.02;100605.22;5099343;27;20504;-64
2022/09/04 08:35:20;;;;;;;2.17;1.77;;;;;;;29.14;30.17;100606.84;5086431;28;20560;-66
2022/09/04 08:38:00;;;;;;;2.97;1.73;;;;;;;29.24;29.89;100603.44;5096736;28;20458;-65
2022/09/04 08:41:14;;;;;;;2.37;1.57;;;;;;;30.35;28.57;100609.56;5099368;28;20503;-66
2022/09/04 08:44:14;;;;;;;2.57;1.60;;;;;;;31.83;27.16;100609.50;5106584;28;20450;-64
2022/09/04 08:47:12;;;;;;;1.67;1.57;;;;;;;32.32;26.55;100612.88;5103639;28;20481;-64
2022/09/04 08:50:10;;;;;;;3.23;1.50;;;;;;;31.56;27.31;100618.03;5112156;28;20861;-65
2022/09/04 08:52:56;;;;;;;2.83;1.67;;;;;;;30.81;27.91;100617.34;5121450;28;20453;-67
2022/09/04 08:55:35;;;;;;;2.87;1.67;;;;;;;30.63;28.25;100613.09;5102604;28;20510;-66
2022/09/04 08:58:21;;;;;;;5.40;1.60;;;;;;;31.43;27.10;100619.31;5106364;28;20498;-65
2022/09/04 09:01:13;;;;;;;3.30;1.90;;;;;;;32.26;26.14;100618.41;5105615;28;20890;-67
2022/09/04 09:04:10;;;;;;;1.77;1.67;;;;;;;32.27;26.07;100619.22;5111636;28;20497;-65
2022/09/04 09:07:13;;;;;;;3.07;1.33;;;;;;;32.19;26.70;100625.34;5122608;28;20529;-63
2022/09/04 09:10:08;;;;;;;2.03;1.83;;;;;;;31.74;27.05;100616.69;5102141;28;20453;-67
2022/09/04 09:12:52;;;;;;;1.70;1.60;;;;;;;31.48;27.64;100619.34;5094696;28;20496;-69
2022/09/04 09:15:49;;;;;;;2.90;1.93;;;;;;;31.25;27.47;100617.88;5112783;28;20458;-68
2022/09/04 09:18:36;;;;;;;2.20;1.80;;;;;;;31.43;27.53;100613.78;5099208;28;20948;-67
2022/09/04 09:21:09;;;;;;;1.93;1.73;;;;;;;31.48;27.69;100611.03;5122820;28;20496;-66
2022/09/04 09:23:59;;;;;;;2.50;1.47;;;;;;;31.78;27.05;100606.72;5123065;28;20449;-66
2022/09/04 09:26:29;;;;;;;3.70;1.40;;;;;;;32.36;26.00;100611.22;5123401;28;20525;-66
2022/09/04 09:29:33;;;;;;;2.00;1.50;;;;;;;31.08;28.01;100606.19;5122543;28;20459;-66
2022/09/04 09:32:44;;;;;;;1.90;1.30;;;;;;;31.62;27.24;100613.34;5117366;28;20489;-66
2022/09/04 09:35:54;;;;;;;2.70;1.70;;;;;;;32.04;26.64;100601.22;5119377;28;20449;-66
2022/09/04 09:38:59;;;;;;;2.10;1.60;;;;;;;31.06;28.38;100600.94;5113227;28;20878;-66
2022/09/04 09:41:50;;;;;;;2.83;1.50;;;;;;;31.04;28.58;100603.16;5088167;28;20872;-68
2022/09/04 09:44:32;;;;;;;2.53;1.80;;;;;;;31.78;28.09;100608.66;5102287;28;20458;-67
2022/09/04 09:47:45;;;;;;;2.80;1.67;;;;;;;31.59;27.93;100597.28;5117749;28;20481;-66
2022/09/04 09:50:50;;;;;;;2.50;1.73;;;;;;;31.77;27.45;100609.75;5099208;28;21178;-66
2022/09/04 09:53:58;;;;;;;2.23;1.63;;;;;;;32.19;27.20;100601.25;5106910;28;20458;-67
2022/09/04 09:57:02;;;;;;;1.70;1.40;;;;;;;32.18;27.13;100607.06;5004791;28;20584;-67
2022/09/04 10:00:07;;;;;;;1.67;1.10;;;;;;;32.77;26.33;100606.47;5025293;28;20453;-67
2022/09/04 10:03:01;;;;;;;2.50;1.50;;;;;;;32.45;26.96;100604.84;5036404;28;20522;-66
2022/09/04 10:06:06;;;;;;;3.57;1.50;;;;;;;32.25;26.70;100602.91;5031469;28;20465;-67
2022/09/04 10:09:09;;;;;;;2.20;1.40;;;;;;;33.80;25.36;100605.22;5000418;28;20462;-67
2022/09/04 10:12:23;;;;;;;2.23;1.50;;;;;;;34.72;24.24;100604.47;4995524;28;20486;-67
2022/09/04 10:15:31;;;;;;;3.17;1.30;;;;;;;34.58;23.60;100607.09;5025064;28;20459;-68
2022/09/04 10:18:39;;;;;;;1.73;1.50;;;;;;;33.22;25.33;100613.00;5000059;28;20949;-66
2022/09/04 10:21:57;;;;;;;1.40;1.20;;;;;;;32.65;26.94;100609.56;4989360;28;20497;-66
2022/09/04 10:25:09;;;;;;;3.97;1.23;;;;;;;33.89;25.22;100609.06;4945222;29;20532;-67
2022/09/04 10:28:08;;;;;;;1.40;1.13;;;;;;;32.72;26.50;100611.19;4990181;28;20499;-67
2022/09/04 10:30:51;;;;;;;1.60;1.10;;;;;;;33.05;25.81;100606.94;4990643;28;20477;-67
2022/09/04 10:33:29;;;;;;;2.47;1.30;;;;;;;33.39;26.05;100607.09;5021657;28;20473;-67
2022/09/04 10:36:03;;;;;;;2.27;1.43;;;;;;;33.76;25.20;100608.56;5019231;28;20515;-67
2022/09/04 10:38:36;;;;;;;1.27;1.10;;;;;;;33.92;24.89;100600.16;5022796;28;20627;-67
2022/09/04 10:41:34;;;;;;;2.00;1.10;;;;;;;32.54;26.47;100604.28;5019047;28;20483;-67
2022/09/04 10:44:20;;;;;;;2.60;1.30;;;;;;;33.15;27.23;100606.94;5028346;28;20540;-67
2022/09/04 10:46:56;;;;;;;1.57;1.33;;;;;;;33.04;25.97;100608.06;5016116;28;20543;-67
2022/09/04 10:49:49;;;;;;;2.60;1.30;;;;;;;32.46;27.65;100609.28;5018559;28;20453;-65
2022/09/04 10:52:40;;;;;;;3.63;1.40;;;;;;;33.53;26.92;100604.53;5018787;28;20483;-66
2022/09/04 10:55:26;;;;;;;3.60;1.10;;;;;;;33.32;26.32;100603.81;5050540;28;20454;-67
2022/09/04 10:58:22;;;;;;;1.43;1.33;;;;;;;32.81;26.39;100602.03;5091032;28;20484;-67
2022/09/04 11:01:02;;;;;;;1.30;1.10;;;;;;;33.11;26.78;100593.91;5084648;28;20475;-67
2022/09/04 11:04:03;;;;;;;1.97;1.50;;;;;;;33.28;26.20;100605.50;5099125;28;20468;-70
2022/09/04 11:06:48;;;;;;;3.83;1.37;;;;;;;33.25;25.85;100600.53;5098785;28;20500;-68
2022/09/04 11:09:35;;;;;;;1.90;1.30;;;;;;;33.00;26.66;100593.09;5105859;28;20457;-68
2022/09/04 11:12:35;;;;;;;2.00;1.20;;;;;;;32.89;26.78;100592.31;5106753;28;20482;-68
2022/09/04 11:15:32;;;;;;;2.80;1.20;;;;;;;32.47;27.17;100599.03;5080422;28;20511;-68
2022/09/04 11:18:23;;;;;;;1.67;1.43;;;;;;;33.12;26.49;100601.09;5111521;28;20509;-68
2022/09/04 11:21:10;;;;;;;1.70;1.20;;;;;;;33.31;25.88;100601.31;5096826;28;20960;-68
2022/09/04 11:24:04;;;;;;;1.40;1.30;;;;;;;33.09;26.84;100599.75;5096414;28;20478;-68
2022/09/04 11:27:09;;;;;;;1.63;1.13;;;;;;;33.42;26.22;100585.47;5113463;27;20901;-68
2022/09/04 11:29:54;;;;;;;3.40;1.40;;;;;;;32.90;27.09;100580.16;5020086;28;20481;-68
2022/09/04 11:32:42;;;;;;;2.40;1.10;;;;;;;32.35;27.35;100590.19;5018067;28;20485;-68
2022/09/04 11:35:57;;;;;;;2.10;1.40;;;;;;;32.04;27.59;100584.63;5091709;27;20449;-67
2022/09/04 11:38:49;;;;;;;3.33;1.30;;;;;;;31.90;28.85;100578.81;5062613;28;20455;-67
2022/09/04 11:42:00;;;;;;;2.57;1.40;;;;;;;32.50;27.41;100579.09;5081449;28;20482;-68
2022/09/04 11:45:06;;;;;;;1.90;1.23;;;;;;;32.16;27.90;100570.56;5091777;28;20480;-68
2022/09/04 11:47:57;;;;;;;1.30;1.10;;;;;;;32.95;27.71;100584.81;5080123;28;20608;-68
2022/09/04 11:50:39;;;;;;;1.37;1.03;;;;;;;33.73;26.29;100581.44;5078940;28;20435;-68
2022/09/04 11:53:26;;;;;;;1.70;1.27;;;;;;;34.10;25.85;100574.50;5079955;28;20469;-68
2022/09/04 11:56:20;;;;;;;4.57;1.03;;;;;;;33.25;26.92;100577.53;5079716;28;20472;-68
2022/09/04 11:59:13;;;;;;;1.93;0.93;;;;;;;33.24;26.63;100582.22;5080647;28;21102;-67
2022/09/04 12:01:56;;;;;;;1.10;0.90;;;;;;;32.78;27.44;100579.63;5059110;28;20495;-68
2022/09/04 12:04:34;;;;;;;1.80;1.10;;;;;;;32.05;28.14;100578.03;5079168;28;20463;-67
2022/09/04 12:07:13;;;;;;;1.70;1.30;;;;;;;31.93;28.24;100577.44;5080063;28;20491;-68
2022/09/04 12:10:01;;;;;;;3.00;1.20;;;;;;;33.02;26.57;100585.38;5080406;28;20491;-68
2022/09/04 12:12:56;;;;;;;2.50;1.40;;;;;;;32.98;27.35;100570.41;5078292;28;20510;-67
2022/09/04 12:15:54;;;;;;;1.30;1.20;;;;;;;31.51;28.23;100573.78;5086022;28;20481;-68
2022/09/04 12:18:50;;;;;;;2.37;1.20;;;;;;;31.91;27.68;100583.25;5098422;28;20491;-67
2022/09/04 12:21:39;;;;;;;1.23;1.00;;;;;;;31.58;28.64;100573.50;5100107;28;20494;-67
2022/09/04 12:24:43;;;;;;;2.10;1.40;;;;;;;31.69;28.52;100572.44;5100222;28;20462;-67
2022/09/04 12:27:43;;;;;;;3.13;1.50;;;;;;;30.44;30.31;100577.63;5098393;28;20482;-67
2022/09/04 12:30:15;;;;;;;2.00;1.57;;;;;;;29.80;31.46;100572.94;5092612;28;20470;-67
2022/09/04 12:33:09;;;;;;;2.47;2.07;;;;;;;29.67;31.88;100572.25;5100801;28;21097;-67
2022/09/04 12:35:56;;;;;;;1.70;1.50;;;;;;;28.92;33.24;100577.41;5099515;28;20474;-67
2022/09/04 12:38:36;;;;;;;2.50;1.57;;;;;;;29.28;32.67;100582.53;5099799;28;20458;-68
2022/09/04 12:41:08;;;;;;;1.37;1.17;;;;;;;29.13;33.57;100576.81;5078321;28;20490;-67